sensor_id;sensor_type;location;lat;lon;timestamp;P1;durP1;ratioP1;P2;durP2;ratioP2
8526;SDS011;4301;48.362;8.478;2023-06-26T00:00:51;6.30;;;5.70;;
8526;SDS011;4301;48.362;8.478;2023-06-26T00:03:18;6.60;;;6.00;;
8526;SDS011;4301;48.362;8.478;2023-06-26T00:05:45;7.30;;;6.20;;
8526;SDS011;4301;48.362;8.478;2023-06-26T00:08:13;6.10;;;5.60;;
8526;SDS011;4301;48.362;8.478;2023-06-26T00:10:40;6.80;;;5.93;;
8526;SDS011;4301;48.362;8.478;2023-06-26T00:13:07;6.93;;;6.23;;
8526;SDS011;4301;48.362;8.478;2023-06-26T00:15:37;6.90;;;6.20;;
8526;SDS011;4301;48.362;8.478;2023-06-26T00:18:06;8.43;;;6.50;;
8526;SDS011;4301;48.362;8.478;2023-06-26T00:20:34;7.63;;;6.60;;
8526;SDS011;4301;48.362;8.478;2023-06-26T00:23:01;7.80;;;6.30;;
8526;SDS011;4301;48.362;8.478;2023-06-26T00:25:29;8.03;;;6.37;;
8526;SDS011;4301;48.362;8.478;2023-06-26T00:27:56;7.67;;;6.37;;
8526;SDS011;4301;48.362;8.478;2023-06-26T00:30:23;6.83;;;6.13;;
8526;SDS011;4301;48.362;8.478;2023-06-26T00:32:50;6.93;;;6.00;;
8526;SDS011;4301;48.362;8.478;2023-06-26T00:35:19;6.07;;;5.53;;
8526;SDS011;4301;48.362;8.478;2023-06-26T00:37:46;6.47;;;5.87;;
8526;SDS011;4301;48.362;8.478;2023-06-26T00:40:14;7.30;;;6.50;;
8526;SDS011;4301;48.362;8.478;2023-06-26T00:42:41;7.00;;;6.30;;
8526;SDS011;4301;48.362;8.478;2023-06-26T00:45:08;7.00;;;6.30;;
8526;SDS011;4301;48.362;8.478;2023-06-26T00:47:36;6.67;;;5.97;;
8526;SDS011;4301;48.362;8.478;2023-06-26T00:50:04;6.70;;;6.10;;
8526;SDS011;4301;48.362;8.478;2023-06-26T00:52:33;7.10;;;6.40;;
8526;SDS011;4301;48.362;8.478;2023-06-26T00:55:00;6.67;;;5.73;;
8526;SDS011;4301;48.362;8.478;2023-06-26T00:57:28;6.70;;;6.00;;
8526;SDS011;4301;48.362;8.478;2023-06-26T00:59:56;7.00;;;6.20;;
8526;SDS011;4301;48.362;8.478;2023-06-26T01:02:24;7.43;;;6.53;;
8526;SDS011;4301;48.362;8.478;2023-06-26T01:04:58;7.63;;;6.47;;
8526;SDS011;4301;48.362;8.478;2023-06-26T01:07:28;7.20;;;6.23;;
8526;SDS011;4301;48.362;8.478;2023-06-26T01:09:58;6.70;;;5.93;;
8526;SDS011;4301;48.362;8.478;2023-06-26T01:12:25;7.23;;;6.53;;
8526;SDS011;4301;48.362;8.478;2023-06-26T01:14:53;6.80;;;6.10;;
8526;SDS011;4301;48.362;8.478;2023-06-26T01:17:20;7.00;;;6.30;;
8526;SDS011;4301;48.362;8.478;2023-06-26T01:19:48;8.90;;;6.53;;
8526;SDS011;4301;48.362;8.478;2023-06-26T01:22:18;8.73;;;5.93;;
8526;SDS011;4301;48.362;8.478;2023-06-26T01:24:52;7.77;;;6.50;;
8526;SDS011;4301;48.362;8.478;2023-06-26T01:27:24;7.70;;;6.70;;
8526;SDS011;4301;48.362;8.478;2023-06-26T01:29:51;7.13;;;5.93;;
8526;SDS011;4301;48.362;8.478;2023-06-26T01:32:19;6.70;;;6.03;;
8526;SDS011;4301;48.362;8.478;2023-06-26T01:34:46;6.43;;;5.83;;
8526;SDS011;4301;48.362;8.478;2023-06-26T01:37:13;7.33;;;6.63;;
8526;SDS011;4301;48.362;8.478;2023-06-26T01:39:41;7.20;;;6.50;;
8526;SDS011;4301;48.362;8.478;2023-06-26T01:42:08;7.27;;;6.57;;
8526;SDS011;4301;48.362;8.478;2023-06-26T01:44:37;7.70;;;6.87;;
8526;SDS011;4301;48.362;8.478;2023-06-26T01:47:05;8.43;;;6.70;;
8526;SDS011;4301;48.362;8.478;2023-06-26T01:49:38;8.50;;;7.20;;
8526;SDS011;4301;48.362;8.478;2023-06-26T01:52:07;8.50;;;7.10;;
8526;SDS011;4301;48.362;8.478;2023-06-26T01:54:41;8.57;;;6.80;;
8526;SDS011;4301;48.362;8.478;2023-06-26T01:57:09;8.07;;;6.97;;
8526;SDS011;4301;48.362;8.478;2023-06-26T01:59:38;9.00;;;6.70;;
8526;SDS011;4301;48.362;8.478;2023-06-26T02:02:07;6.87;;;6.17;;
8526;SDS011;4301;48.362;8.478;2023-06-26T02:04:34;7.73;;;6.93;;
8526;SDS011;4301;48.362;8.478;2023-06-26T02:07:02;7.07;;;6.40;;
8526;SDS011;4301;48.362;8.478;2023-06-26T02:09:29;7.30;;;6.60;;
8526;SDS011;4301;48.362;8.478;2023-06-26T02:11:57;7.57;;;6.60;;
8526;SDS011;4301;48.362;8.478;2023-06-26T02:14:24;7.70;;;6.90;;
8526;SDS011;4301;48.362;8.478;2023-06-26T02:16:52;7.73;;;6.93;;
8526;SDS011;4301;48.362;8.478;2023-06-26T02:19:20;8.37;;;7.33;;
8526;SDS011;4301;48.362;8.478;2023-06-26T02:21:47;8.80;;;7.90;;
8526;SDS011;4301;48.362;8.478;2023-06-26T02:24:15;8.20;;;7.40;;
8526;SDS011;4301;48.362;8.478;2023-06-26T02:26:42;7.93;;;7.13;;
8526;SDS011;4301;48.362;8.478;2023-06-26T02:29:09;7.83;;;7.03;;
8526;SDS011;4301;48.362;8.478;2023-06-26T02:31:36;8.80;;;7.37;;
8526;SDS011;4301;48.362;8.478;2023-06-26T02:34:05;9.63;;;7.30;;
8526;SDS011;4301;48.362;8.478;2023-06-26T02:36:32;8.03;;;7.20;;
8526;SDS011;4301;48.362;8.478;2023-06-26T02:39:00;8.80;;;7.27;;
8526;SDS011;4301;48.362;8.478;2023-06-26T02:41:27;8.23;;;7.40;;
8526;SDS011;4301;48.362;8.478;2023-06-26T02:43:54;8.10;;;7.30;;
8526;SDS011;4301;48.362;8.478;2023-06-26T02:46:22;8.67;;;7.33;;
8526;SDS011;4301;48.362;8.478;2023-06-26T02:48:49;7.63;;;6.53;;
8526;SDS011;4301;48.362;8.478;2023-06-26T02:51:18;7.43;;;6.67;;
8526;SDS011;4301;48.362;8.478;2023-06-26T02:53:45;9.43;;;7.43;;
8526;SDS011;4301;48.362;8.478;2023-06-26T02:56:12;9.30;;;7.20;;
8526;SDS011;4301;48.362;8.478;2023-06-26T02:58:39;7.70;;;7.00;;
8526;SDS011;4301;48.362;8.478;2023-06-26T03:01:07;8.50;;;7.60;;
8526;SDS011;4301;48.362;8.478;2023-06-26T03:03:34;9.23;;;7.53;;
8526;SDS011;4301;48.362;8.478;2023-06-26T03:06:05;8.10;;;7.30;;
8526;SDS011;4301;48.362;8.478;2023-06-26T03:08:35;8.00;;;7.20;;
8526;SDS011;4301;48.362;8.478;2023-06-26T03:11:03;9.10;;;7.10;;
8526;SDS011;4301;48.362;8.478;2023-06-26T03:13:31;8.10;;;7.30;;
8526;SDS011;4301;48.362;8.478;2023-06-26T03:15:58;10.93;;;7.40;;
8526;SDS011;4301;48.362;8.478;2023-06-26T03:18:26;7.63;;;6.93;;
8526;SDS011;4301;48.362;8.478;2023-06-26T03:20:54;8.47;;;7.23;;
8526;SDS011;4301;48.362;8.478;2023-06-26T03:23:22;7.90;;;7.07;;
8526;SDS011;4301;48.362;8.478;2023-06-26T03:25:51;7.97;;;7.07;;
8526;SDS011;4301;48.362;8.478;2023-06-26T03:28:18;8.57;;;7.60;;
8526;SDS011;4301;48.362;8.478;2023-06-26T03:30:45;8.77;;;7.50;;
8526;SDS011;4301;48.362;8.478;2023-06-26T03:33:12;8.10;;;7.27;;
8526;SDS011;4301;48.362;8.478;2023-06-26T03:35:39;7.50;;;6.80;;
8526;SDS011;4301;48.362;8.478;2023-06-26T03:38:07;8.47;;;7.67;;
8526;SDS011;4301;48.362;8.478;2023-06-26T03:40:34;8.67;;;7.77;;
8526;SDS011;4301;48.362;8.478;2023-06-26T03:43:02;10.50;;;8.10;;
8526;SDS011;4301;48.362;8.478;2023-06-26T03:45:30;9.87;;;7.67;;
8526;SDS011;4301;48.362;8.478;2023-06-26T03:47:57;8.37;;;7.47;;
8526;SDS011;4301;48.362;8.478;2023-06-26T03:50:24;8.17;;;7.33;;
8526;SDS011;4301;48.362;8.478;2023-06-26T03:52:51;7.93;;;6.90;;
8526;SDS011;4301;48.362;8.478;2023-06-26T03:55:19;8.80;;;7.90;;
8526;SDS011;4301;48.362;8.478;2023-06-26T03:57:47;7.90;;;7.10;;
8526;SDS011;4301;48.362;8.478;2023-06-26T04:00:16;11.93;;;7.53;;
8526;SDS011;4301;48.362;8.478;2023-06-26T04:02:44;7.93;;;7.13;;
8526;SDS011;4301;48.362;8.478;2023-06-26T04:05:11;8.77;;;7.87;;
8526;SDS011;4301;48.362;8.478;2023-06-26T04:07:38;9.00;;;8.13;;
8526;SDS011;4301;48.362;8.478;2023-06-26T04:10:06;8.50;;;7.70;;
8526;SDS011;4301;48.362;8.478;2023-06-26T04:12:33;9.13;;;8.03;;
8526;SDS011;4301;48.362;8.478;2023-06-26T04:15:00;8.87;;;8.00;;
8526;SDS011;4301;48.362;8.478;2023-06-26T04:17:29;8.70;;;7.80;;
8526;SDS011;4301;48.362;8.478;2023-06-26T04:19:56;9.23;;;8.33;;
8526;SDS011;4301;48.362;8.478;2023-06-26T04:22:23;8.60;;;7.73;;
8526;SDS011;4301;48.362;8.478;2023-06-26T04:24:51;8.57;;;7.63;;
8526;SDS011;4301;48.362;8.478;2023-06-26T04:27:18;8.63;;;7.73;;
8526;SDS011;4301;48.362;8.478;2023-06-26T04:29:45;7.93;;;7.00;;
8526;SDS011;4301;48.362;8.478;2023-06-26T04:32:12;8.87;;;8.00;;
8526;SDS011;4301;48.362;8.478;2023-06-26T04:34:41;7.80;;;7.00;;
8526;SDS011;4301;48.362;8.478;2023-06-26T04:37:13;8.23;;;7.43;;
8526;SDS011;4301;48.362;8.478;2023-06-26T04:39:42;8.80;;;8.00;;
8526;SDS011;4301;48.362;8.478;2023-06-26T04:42:09;9.20;;;7.70;;
8526;SDS011;4301;48.362;8.478;2023-06-26T04:44:37;8.80;;;7.90;;
8526;SDS011;4301;48.362;8.478;2023-06-26T04:47:06;8.40;;;7.57;;
8526;SDS011;4301;48.362;8.478;2023-06-26T04:49:33;8.87;;;7.97;;
8526;SDS011;4301;48.362;8.478;2023-06-26T04:52:02;8.63;;;7.73;;
8526;SDS011;4301;48.362;8.478;2023-06-26T04:54:29;8.77;;;7.90;;
8526;SDS011;4301;48.362;8.478;2023-06-26T04:56:56;10.03;;;8.03;;
8526;SDS011;4301;48.362;8.478;2023-06-26T04:59:24;9.07;;;8.17;;
8526;SDS011;4301;48.362;8.478;2023-06-26T05:01:52;9.55;;;8.10;;
8526;SDS011;4301;48.362;8.478;2023-06-26T05:04:20;9.40;;;8.50;;
8526;SDS011;4301;48.362;8.478;2023-06-26T05:06:47;8.47;;;7.67;;
8526;SDS011;4301;48.362;8.478;2023-06-26T05:09:16;8.90;;;8.00;;
8526;SDS011;4301;48.362;8.478;2023-06-26T05:11:43;8.90;;;8.00;;
8526;SDS011;4301;48.362;8.478;2023-06-26T05:14:10;8.33;;;7.53;;
8526;SDS011;4301;48.362;8.478;2023-06-26T05:16:38;8.33;;;7.53;;
8526;SDS011;4301;48.362;8.478;2023-06-26T05:19:05;8.20;;;7.40;;
8526;SDS011;4301;48.362;8.478;2023-06-26T05:21:33;8.77;;;7.57;;
8526;SDS011;4301;48.362;8.478;2023-06-26T05:24:01;8.10;;;7.30;;
8526;SDS011;4301;48.362;8.478;2023-06-26T05:26:31;8.30;;;7.40;;
8526;SDS011;4301;48.362;8.478;2023-06-26T05:28:58;8.30;;;7.50;;
8526;SDS011;4301;48.362;8.478;2023-06-26T05:31:26;8.18;;;7.38;;
8526;SDS011;4301;48.362;8.478;2023-06-26T05:33:53;8.27;;;7.47;;
8526;SDS011;4301;48.362;8.478;2023-06-26T05:36:22;8.73;;;7.57;;
8526;SDS011;4301;48.362;8.478;2023-06-26T05:38:51;8.27;;;7.30;;
8526;SDS011;4301;48.362;8.478;2023-06-26T05:41:18;8.57;;;7.20;;
8526;SDS011;4301;48.362;8.478;2023-06-26T05:43:47;9.13;;;6.90;;
8526;SDS011;4301;48.362;8.478;2023-06-26T05:46:14;8.10;;;7.30;;
8526;SDS011;4301;48.362;8.478;2023-06-26T05:48:42;8.30;;;7.43;;
8526;SDS011;4301;48.362;8.478;2023-06-26T05:51:09;7.93;;;6.97;;
8526;SDS011;4301;48.362;8.478;2023-06-26T05:53:37;8.23;;;7.43;;
8526;SDS011;4301;48.362;8.478;2023-06-26T05:56:04;7.97;;;7.00;;
8526;SDS011;4301;48.362;8.478;2023-06-26T05:58:31;7.07;;;6.40;;
8526;SDS011;4301;48.362;8.478;2023-06-26T06:01:01;7.60;;;6.90;;
8526;SDS011;4301;48.362;8.478;2023-06-26T06:03:28;7.83;;;7.13;;
8526;SDS011;4301;48.362;8.478;2023-06-26T06:05:55;10.73;;;7.47;;
8526;SDS011;4301;48.362;8.478;2023-06-26T06:08:22;8.37;;;6.60;;
8526;SDS011;4301;48.362;8.478;2023-06-26T06:10:50;7.40;;;6.60;;
8526;SDS011;4301;48.362;8.478;2023-06-26T06:13:17;7.67;;;6.97;;
8526;SDS011;4301;48.362;8.478;2023-06-26T06:15:44;7.67;;;6.60;;
8526;SDS011;4301;48.362;8.478;2023-06-26T06:18:13;7.43;;;6.73;;
8526;SDS011;4301;48.362;8.478;2023-06-26T06:20:40;8.03;;;7.23;;
8526;SDS011;4301;48.362;8.478;2023-06-26T06:23:07;7.07;;;6.37;;
8526;SDS011;4301;48.362;8.478;2023-06-26T06:25:34;11.03;;;7.20;;
8526;SDS011;4301;48.362;8.478;2023-06-26T06:28:01;6.43;;;5.83;;
8526;SDS011;4301;48.362;8.478;2023-06-26T06:30:29;7.07;;;6.37;;
8526;SDS011;4301;48.362;8.478;2023-06-26T06:32:57;7.80;;;6.97;;
8526;SDS011;4301;48.362;8.478;2023-06-26T06:35:26;7.07;;;6.37;;
8526;SDS011;4301;48.362;8.478;2023-06-26T06:37:53;7.83;;;6.20;;
8526;SDS011;4301;48.362;8.478;2023-06-26T06:40:20;8.00;;;5.87;;
8526;SDS011;4301;48.362;8.478;2023-06-26T06:42:48;6.97;;;6.30;;
8526;SDS011;4301;48.362;8.478;2023-06-26T06:45:15;6.30;;;5.72;;
8526;SDS011;4301;48.362;8.478;2023-06-26T06:47:42;6.20;;;5.53;;
8526;SDS011;4301;48.362;8.478;2023-06-26T06:50:09;6.22;;;5.70;;
8526;SDS011;4301;48.362;8.478;2023-06-26T06:52:38;6.82;;;6.22;;
8526;SDS011;4301;48.362;8.478;2023-06-26T06:55:06;6.35;;;5.75;;
8526;SDS011;4301;48.362;8.478;2023-06-26T06:57:35;6.80;;;6.10;;
8526;SDS011;4301;48.362;8.478;2023-06-26T07:00:03;6.28;;;5.70;;
8526;SDS011;4301;48.362;8.478;2023-06-26T07:02:30;6.32;;;5.72;;
8526;SDS011;4301;48.362;8.478;2023-06-26T07:04:58;6.05;;;5.55;;
8526;SDS011;4301;48.362;8.478;2023-06-26T07:07:28;6.10;;;5.50;;
8526;SDS011;4301;48.362;8.478;2023-06-26T07:09:57;8.73;;;5.78;;
8526;SDS011;4301;48.362;8.478;2023-06-26T07:12:24;6.20;;;5.60;;
8526;SDS011;4301;48.362;8.478;2023-06-26T07:14:51;5.95;;;5.45;;
8526;SDS011;4301;48.362;8.478;2023-06-26T07:17:19;5.90;;;5.40;;
8526;SDS011;4301;48.362;8.478;2023-06-26T07:19:46;5.97;;;5.38;;
8526;SDS011;4301;48.362;8.478;2023-06-26T07:22:13;5.97;;;5.47;;
8526;SDS011;4301;48.362;8.478;2023-06-26T07:24:40;6.15;;;5.55;;
8526;SDS011;4301;48.362;8.478;2023-06-26T07:27:09;6.55;;;5.88;;
8526;SDS011;4301;48.362;8.478;2023-06-26T07:29:37;6.63;;;5.57;;
8526;SDS011;4301;48.362;8.478;2023-06-26T07:32:04;6.65;;;5.70;;
8526;SDS011;4301;48.362;8.478;2023-06-26T07:34:31;6.13;;;5.63;;
8526;SDS011;4301;48.362;8.478;2023-06-26T07:36:59;5.47;;;4.97;;
8526;SDS011;4301;48.362;8.478;2023-06-26T07:39:26;5.93;;;5.43;;
8526;SDS011;4301;48.362;8.478;2023-06-26T07:41:53;6.20;;;5.60;;
8526;SDS011;4301;48.362;8.478;2023-06-26T07:44:22;5.90;;;5.40;;
8526;SDS011;4301;48.362;8.478;2023-06-26T07:46:49;6.35;;;5.60;;
8526;SDS011;4301;48.362;8.478;2023-06-26T07:49:16;6.35;;;5.82;;
8526;SDS011;4301;48.362;8.478;2023-06-26T07:51:44;6.47;;;5.97;;
8526;SDS011;4301;48.362;8.478;2023-06-26T07:54:11;6.53;;;5.93;;
8526;SDS011;4301;48.362;8.478;2023-06-26T07:56:52;6.18;;;5.57;;
8526;SDS011;4301;48.362;8.478;2023-06-26T07:59:19;5.78;;;5.28;;
8526;SDS011;4301;48.362;8.478;2023-06-26T08:01:48;6.38;;;5.47;;
8526;SDS011;4301;48.362;8.478;2023-06-26T08:04:17;5.70;;;5.20;;
8526;SDS011;4301;48.362;8.478;2023-06-26T08:06:45;6.03;;;5.45;;
8526;SDS011;4301;48.362;8.478;2023-06-26T08:09:12;5.80;;;5.30;;
8526;SDS011;4301;48.362;8.478;2023-06-26T08:11:39;5.60;;;5.10;;
8526;SDS011;4301;48.362;8.478;2023-06-26T08:14:07;8.00;;;5.63;;
8526;SDS011;4301;48.362;8.478;2023-06-26T08:16:34;5.30;;;4.90;;
8526;SDS011;4301;48.362;8.478;2023-06-26T08:19:02;9.05;;;5.63;;
8526;SDS011;4301;48.362;8.478;2023-06-26T08:21:30;6.20;;;5.68;;
8526;SDS011;4301;48.362;8.478;2023-06-26T08:23:57;5.68;;;5.22;;
8526;SDS011;4301;48.362;8.478;2023-06-26T08:26:24;8.75;;;5.82;;
8526;SDS011;4301;48.362;8.478;2023-06-26T08:28:51;5.72;;;5.15;;
8526;SDS011;4301;48.362;8.478;2023-06-26T08:31:18;5.38;;;4.97;;
8526;SDS011;4301;48.362;8.478;2023-06-26T08:33:46;5.10;;;4.60;;
8526;SDS011;4301;48.362;8.478;2023-06-26T08:36:14;6.03;;;5.53;;
8526;SDS011;4301;48.362;8.478;2023-06-26T08:38:42;5.40;;;4.90;;
8526;SDS011;4301;48.362;8.478;2023-06-26T08:41:10;6.05;;;5.55;;
8526;SDS011;4301;48.362;8.478;2023-06-26T08:43:37;5.95;;;5.45;;
8526;SDS011;4301;48.362;8.478;2023-06-26T08:46:04;5.57;;;5.18;;
8526;SDS011;4301;48.362;8.478;2023-06-26T08:48:32;6.40;;;5.80;;
8526;SDS011;4301;48.362;8.478;2023-06-26T08:53:50;6.20;;;5.70;;
8526;SDS011;4301;48.362;8.478;2023-06-26T08:56:19;5.90;;;5.40;;
8526;SDS011;4301;48.362;8.478;2023-06-26T08:58:47;5.65;;;5.25;;
8526;SDS011;4301;48.362;8.478;2023-06-26T09:01:14;17.25;;;5.72;;
8526;SDS011;4301;48.362;8.478;2023-06-26T09:03:42;8.27;;;5.88;;
8526;SDS011;4301;48.362;8.478;2023-06-26T09:06:09;5.85;;;5.43;;
8526;SDS011;4301;48.362;8.478;2023-06-26T09:08:37;6.00;;;5.50;;
8526;SDS011;4301;48.362;8.478;2023-06-26T09:11:06;6.20;;;5.60;;
8526;SDS011;4301;48.362;8.478;2023-06-26T09:13:33;5.80;;;5.30;;
8526;SDS011;4301;48.362;8.478;2023-06-26T09:16:03;6.03;;;5.63;;
8526;SDS011;4301;48.362;8.478;2023-06-26T09:18:31;6.50;;;5.90;;
8526;SDS011;4301;48.362;8.478;2023-06-26T09:20:59;6.05;;;5.55;;
8526;SDS011;4301;48.362;8.478;2023-06-26T09:23:27;5.88;;;5.32;;
8526;SDS011;4301;48.362;8.478;2023-06-26T09:25:54;6.07;;;5.47;;
8526;SDS011;4301;48.362;8.478;2023-06-26T09:28:22;7.03;;;6.25;;
8526;SDS011;4301;48.362;8.478;2023-06-26T09:30:50;6.93;;;6.32;;
8526;SDS011;4301;48.362;8.478;2023-06-26T09:33:19;6.10;;;5.60;;
8526;SDS011;4301;48.362;8.478;2023-06-26T09:35:47;6.90;;;6.30;;
8526;SDS011;4301;48.362;8.478;2023-06-26T09:38:14;6.03;;;5.60;;
8526;SDS011;4301;48.362;8.478;2023-06-26T09:40:43;7.22;;;5.93;;
8526;SDS011;4301;48.362;8.478;2023-06-26T09:43:13;6.57;;;5.97;;
8526;SDS011;4301;48.362;8.478;2023-06-26T09:45:41;6.85;;;6.25;;
8526;SDS011;4301;48.362;8.478;2023-06-26T09:48:09;6.20;;;5.60;;
8526;SDS011;4301;48.362;8.478;2023-06-26T09:50:37;6.72;;;6.13;;
8526;SDS011;4301;48.362;8.478;2023-06-26T09:53:08;6.65;;;6.15;;
8526;SDS011;4301;48.362;8.478;2023-06-26T09:55:35;6.43;;;5.93;;
8526;SDS011;4301;48.362;8.478;2023-06-26T09:58:02;6.70;;;6.20;;
8526;SDS011;4301;48.362;8.478;2023-06-26T10:00:30;8.70;;;6.35;;
8526;SDS011;4301;48.362;8.478;2023-06-26T10:02:59;7.15;;;6.53;;
8526;SDS011;4301;48.362;8.478;2023-06-26T10:05:27;6.75;;;5.70;;
8526;SDS011;4301;48.362;8.478;2023-06-26T10:07:54;7.13;;;6.45;;
8526;SDS011;4301;48.362;8.478;2023-06-26T10:10:22;6.97;;;6.20;;
8526;SDS011;4301;48.362;8.478;2023-06-26T10:12:51;7.97;;;5.75;;
8526;SDS011;4301;48.362;8.478;2023-06-26T10:15:21;6.88;;;6.38;;
8526;SDS011;4301;48.362;8.478;2023-06-26T10:17:50;8.63;;;6.38;;
8526;SDS011;4301;48.362;8.478;2023-06-26T10:20:19;6.95;;;6.35;;
8526;SDS011;4301;48.362;8.478;2023-06-26T10:22:47;6.32;;;5.82;;
8526;SDS011;4301;48.362;8.478;2023-06-26T10:25:16;6.97;;;6.28;;
8526;SDS011;4301;48.362;8.478;2023-06-26T10:27:46;6.82;;;6.15;;
8526;SDS011;4301;48.362;8.478;2023-06-26T10:30:16;7.25;;;6.65;;
8526;SDS011;4301;48.362;8.478;2023-06-26T10:32:44;7.13;;;6.47;;
8526;SDS011;4301;48.362;8.478;2023-06-26T10:35:12;7.78;;;7.07;;
8526;SDS011;4301;48.362;8.478;2023-06-26T10:37:45;7.55;;;6.88;;
8526;SDS011;4301;48.362;8.478;2023-06-26T10:40:13;7.75;;;6.35;;
8526;SDS011;4301;48.362;8.478;2023-06-26T10:42:41;9.05;;;6.40;;
8526;SDS011;4301;48.362;8.478;2023-06-26T10:45:13;7.80;;;6.80;;
8526;SDS011;4301;48.362;8.478;2023-06-26T10:47:41;7.47;;;6.78;;
8526;SDS011;4301;48.362;8.478;2023-06-26T10:50:18;7.80;;;7.07;;
8526;SDS011;4301;48.362;8.478;2023-06-26T10:52:46;7.95;;;7.25;;
8526;SDS011;4301;48.362;8.478;2023-06-26T10:55:34;7.80;;;6.88;;
8526;SDS011;4301;48.362;8.478;2023-06-26T10:58:01;7.32;;;6.60;;
8526;SDS011;4301;48.362;8.478;2023-06-26T11:00:28;7.57;;;6.93;;
